Stations météo

Publicité
Cap Gris Nez, France (7004): Température de l'air & dewpoint: 14.09.2020 23:00:00 - 20.09.2020 23:00:00 (CEST)Cap Gris Nez, France (7004): Vitesse du vent & gusts: 14.09.2020 23:00:00 - 20.09.2020 23:00:00 (CEST)Cap Gris Nez, France (7004): Direction du vent: 14.09.2020 23:00:00 - 20.09.2020 23:00:00 (CEST)Cap Gris Nez, France (7004): Quantités de précipitations: 14.09.2020 23:00:00 - 20.09.2020 23:00:00 (CEST)
Date & Time tt [°C] td [°C] ff [km/h] ff [knt] fx [km/h] fx [knt] dd rr [mm]
20.09.2020 23:00:00 - - - - - - - -
20.09.2020 22:00:00 17,2 13,9 40 22 51 28 NE 0,0
20.09.2020 21:00:00 17,2 13,9 39 21 55 30 NE 0,0
20.09.2020 20:00:00 17,5 14,4 42 23 54 29 NE 0,0
20.09.2020 19:00:00 17,8 14,5 37 20 44 24 NE 0,0
20.09.2020 18:00:00 18,3 14,8 34 18 44 24 NE 0,0
20.09.2020 17:00:00 19,0 14,3 30 16 39 21 NE 0,0
20.09.2020 16:00:00 - - - - - - - -
20.09.2020 15:00:00 18,6 14,7 34 18 46 25 NE 0,0
20.09.2020 14:00:00 19,5 14,3 34 18 46 25 NE 0,0
20.09.2020 13:00:00 18,9 15,0 37 20 53 28 NE 0,0
20.09.2020 12:00:00 18,4 15,1 42 23 50 27 NE 0,0
20.09.2020 11:00:00 18,4 15,3 39 21 51 28 NE 0,0
20.09.2020 10:00:00 - - - - - - - -
20.09.2020 09:00:00 18,1 15,4 33 18 44 24 NE 0,0
20.09.2020 08:00:00 17,9 14,8 29 16 40 22 NE 0,0
20.09.2020 07:00:00 17,7 14,2 27 15 40 21 NE 0,0
20.09.2020 06:00:00 17,8 14,3 29 16 40 22 ENE 0,0
20.09.2020 05:00:00 18,1 14,6 28 15 38 20 ENE 0,0
20.09.2020 04:00:00 17,9 14,8 28 15 38 21 ENE 0,0
20.09.2020 03:00:00 18,1 15,2 24 13 36 19 NE 0,0
20.09.2020 02:00:00 18,5 14,8 27 15 35 19 ENE 0,0
20.09.2020 01:00:00 18,4 15,5 22 12 34 18 NE 0,0
20.09.2020 00:00:00 18,2 15,8 25 14 40 22 ENE 0,0
19.09.2020 23:00:00 18,1 15,7 26 14 41 22 NE 0,0
19.09.2020 22:00:00 18,1 15,9 27 15 43 23 NE 0,0
19.09.2020 21:00:00 18,0 15,6 32 18 41 22 NE 0,0
19.09.2020 20:00:00 18,0 15,3 31 17 41 22 NE 0,0
19.09.2020 19:00:00 18,1 15,0 35 19 46 25 NE 0,0
19.09.2020 18:00:00 18,6 14,9 30 16 43 23 NE 0,0
19.09.2020 17:00:00 19,0 15,1 33 18 45 24 NE 0,0
19.09.2020 16:00:00 18,5 14,8 32 18 46 25 NE 0,0
19.09.2020 15:00:00 18,6 14,1 36 19 45 24 NE 0,0
19.09.2020 14:00:00 19,0 14,5 33 18 46 25 NE 0,0
19.09.2020 13:00:00 18,9 14,0 32 18 46 25 NE 0,0
19.09.2020 12:00:00 19,5 12,3 21 11 37 20 ENE 0,0
19.09.2020 11:00:00 17,1 10,5 23 12 31 17 NE 0,0
19.09.2020 10:00:00 15,4 8,8 17 9 42 23 E 0,0
19.09.2020 09:00:00 15,0 8,7 31 17 47 25 ENE 0,0
19.09.2020 08:00:00 14,4 8,6 36 19 49 26 E 0,0
19.09.2020 07:00:00 14,1 8,1 36 19 53 29 E 0,0
19.09.2020 06:00:00 14,9 8,6 31 17 45 24 ENE 0,0
19.09.2020 05:00:00 15,6 9,0 27 15 49 26 ENE 0,0
19.09.2020 04:00:00 16,0 9,6 31 17 42 23 ENE 0,0
19.09.2020 03:00:00 16,7 10,1 29 16 43 23 ENE 0,0
19.09.2020 02:00:00 17,4 10,5 29 16 42 23 ENE 0,0
19.09.2020 01:00:00 18,0 12,0 34 19 49 27 ENE 0,0
19.09.2020 00:00:00 18,0 14,1 32 18 46 25 ENE 0,0
18.09.2020 23:00:00 17,9 14,6 30 16 41 22 NE 0,0
18.09.2020 22:00:00 - - - - - - - -
18.09.2020 21:00:00 18,3 14,4 34 18 54 29 ENE 0,0
18.09.2020 20:00:00 18,2 14,7 39 21 55 30 NE 0,0
18.09.2020 19:00:00 18,1 14,2 44 24 56 30 NE 0,0
18.09.2020 18:00:00 18,0 13,7 40 22 53 29 NE 0,0
18.09.2020 17:00:00 18,0 13,7 42 23 55 30 NE 0,0
18.09.2020 16:00:00 17,8 13,3 44 24 55 30 NE 0,0
18.09.2020 15:00:00 17,8 12,3 39 21 59 32 NE 0,0
18.09.2020 14:00:00 17,6 12,1 43 23 54 29 NE 0,0
18.09.2020 13:00:00 17,5 12,2 39 21 50 27 NE 0,0
18.09.2020 12:00:00 16,9 10,3 29 16 42 23 NE 0,0
18.09.2020 11:00:00 14,7 7,7 31 17 45 24 ENE 0,0
18.09.2020 10:00:00 12,0 6,5 35 19 48 26 ENE 0,0
18.09.2020 09:00:00 10,8 6,3 27 14 44 24 E 0,0
18.09.2020 08:00:00 10,2 6,0 26 14 34 18 ENE 0,0
18.09.2020 07:00:00 10,8 6,2 22 12 39 21 ENE 0,0
18.09.2020 06:00:00 11,2 6,5 19 10 32 18 E 0,0
18.09.2020 05:00:00 11,3 6,4 22 12 39 21 ENE 0,0
18.09.2020 04:00:00 - - - - - - - -
18.09.2020 03:00:00 13,0 5,9 27 15 41 22 E 0,0
18.09.2020 02:00:00 13,6 6,5 24 13 45 25 E 0,0
18.09.2020 01:00:00 14,4 6,2 32 17 50 27 ENE 0,0
18.09.2020 00:00:00 15,1 7,4 31 17 48 26 ENE 0,0
17.09.2020 23:00:00 15,9 8,4 29 16 42 23 ENE 0,0
17.09.2020 22:00:00 - - - - - - - -
17.09.2020 21:00:00 16,8 10,6 39 21 61 33 ENE 0,0
17.09.2020 20:00:00 16,6 11,1 45 24 64 35 NE 0,0
17.09.2020 19:00:00 - - - - - - - -
17.09.2020 18:00:00 - - - - - - - -
17.09.2020 17:00:00 17,3 11,3 39 21 57 31 NE 0,0
17.09.2020 16:00:00 17,5 11,5 43 23 61 33 NE 0,0
17.09.2020 15:00:00 17,4 11,0 45 25 60 32 NE 0,0
17.09.2020 14:00:00 17,3 11,1 46 25 62 33 NE 0,0
17.09.2020 13:00:00 17,8 9,9 41 22 60 32 NE 0,0
17.09.2020 12:00:00 17,0 10,4 41 22 60 33 ENE 0,0
17.09.2020 11:00:00 16,2 10,7 42 23 59 32 ENE 0,0
17.09.2020 10:00:00 15,1 10,5 31 17 46 25 E 0,0
17.09.2020 09:00:00 13,9 10,9 31 17 46 25 E 0,0
17.09.2020 08:00:00 13,4 11,1 27 15 42 23 E 0,0
17.09.2020 07:00:00 14,5 11,6 23 12 60 32 E 0,0
17.09.2020 06:00:00 16,2 12,2 42 23 64 35 ENE 0,0
17.09.2020 05:00:00 16,6 13,1 44 24 62 33 NE 0,0
17.09.2020 04:00:00 16,9 13,6 40 22 60 32 NE 0,0
17.09.2020 03:00:00 16,9 13,8 45 24 67 36 NE 0,0
17.09.2020 02:00:00 17,2 14,7 45 25 62 33 NE 0,0
17.09.2020 01:00:00 17,4 15,2 42 23 63 34 NE 0,0
17.09.2020 00:00:00 17,5 15,7 50 27 67 36 NE 0,0
16.09.2020 23:00:00 17,5 15,7 55 30 71 39 NE 0,0
16.09.2020 22:00:00 17,5 15,8 55 30 71 39 NE 0,0
16.09.2020 21:00:00 17,7 16,0 58 32 72 39 NE 0,0
16.09.2020 20:00:00 17,9 16,6 55 30 66 35 NE 0,0
16.09.2020 19:00:00 18,4 16,4 50 27 64 35 NE 0,0
16.09.2020 18:00:00 18,6 16,4 44 24 56 31 NNE 0,0
16.09.2020 17:00:00 19,5 16,0 43 23 54 29 NE 0,0
16.09.2020 16:00:00 19,7 16,0 41 22 50 27 NE 0,0
16.09.2020 15:00:00 19,5 16,3 40 21 51 27 NE 0,0
16.09.2020 14:00:00 20,4 16,6 40 21 51 28 NE 0,0
16.09.2020 13:00:00 20,3 16,5 37 20 47 26 NE 0,0
16.09.2020 12:00:00 19,8 17,4 36 19 46 25 NE 0,0
16.09.2020 11:00:00 18,6 17,8 33 18 46 25 NE 0,0
16.09.2020 10:00:00 18,4 17,7 27 15 35 19 NE 0,0
16.09.2020 09:00:00 18,2 17,9 25 14 32 17 NNE 0,0
16.09.2020 08:00:00 17,8 17,5 22 12 29 16 NNE 0,0
16.09.2020 07:00:00 17,9 17,6 22 12 29 16 NNE 0,0
16.09.2020 06:00:00 17,8 17,3 17 9 23 12 NNE 0,0
16.09.2020 05:00:00 17,5 16,9 14 8 19 10 NE 0,0
16.09.2020 04:00:00 17,2 16,6 4 2 14 7 NE 0,2
16.09.2020 03:00:00 17,9 17,1 13 7 18 10 SSW 0,0
16.09.2020 02:00:00 18,0 17,0 7 4 14 7 SSW 0,0
16.09.2020 01:00:00 18,0 17,0 9 5 21 11 S 0,0
16.09.2020 00:00:00 18,2 17,2 16 9 23 12 SSW 0,0
15.09.2020 23:00:00 18,3 17,5 20 11 25 13 SSW 0,0
15.09.2020 22:00:00 - - - - - - - -
15.09.2020 21:00:00 18,4 17,7 22 12 29 16 SSW 0,0
15.09.2020 20:00:00 18,9 18,1 23 12 32 18 SW 0,0
15.09.2020 19:00:00 20,2 17,6 23 12 29 16 SSW 0,0
15.09.2020 18:00:00 24,0 15,8 13 7 22 12 S 0,0
15.09.2020 17:00:00 22,6 16,2 15 8 25 14 S 0,0
15.09.2020 16:00:00 22,4 16,9 19 10 29 16 SSW 0,0
15.09.2020 15:00:00 22,5 16,3 23 12 32 17 SSW 0,0
15.09.2020 14:00:00 22,5 15,8 24 13 33 18 SSW 0,0
15.09.2020 13:00:00 23,4 14,7 24 13 31 17 SSW 0,0
15.09.2020 12:00:00 23,5 13,9 25 14 36 19 SSW 0,0
15.09.2020 11:00:00 24,1 13,3 27 15 35 19 SSW 0,0
15.09.2020 10:00:00 24,9 12,8 24 13 34 18 S 0,0
15.09.2020 09:00:00 24,2 13,1 22 12 31 17 S 0,0
15.09.2020 08:00:00 22,4 13,5 23 12 32 17 SSE 0,0
15.09.2020 07:00:00 22,4 13,5 10 6 23 12 SSE 0,0
15.09.2020 06:00:00 22,9 13,4 17 9 23 13 SE 0,0
15.09.2020 05:00:00 21,6 14,3 18 10 24 13 SE 0,0
15.09.2020 04:00:00 19,4 15,5 15 8 22 12 ESE 0,0
15.09.2020 03:00:00 18,3 17,5 18 10 26 14 ENE 0,0
15.09.2020 02:00:00 18,4 17,4 21 11 25 14 ENE 0,0
15.09.2020 01:00:00 18,7 17,5 17 9 24 13 NE 0,0
15.09.2020 00:00:00 18,9 17,6 16 8 23 12 NE 0,0
14.09.2020 23:00:00 19,8 16,2 15 8 22 12 NE 0,0

tt = Température de l'air
td = dewpoint
ff = Vitesse du vent
fx = gusts
dd = Direction du vent
rr = Quantités de précipitations

stations d'obs. à proximité